sensor_id;sensor_type;location;lat;lon;timestamp;P1;durP1;ratioP1;P2;durP2;ratioP2
54945;SDS011;40846;44.788;20.486;2023-07-31T00:01:11;10.30;;;5.80;;
54945;SDS011;40846;44.788;20.486;2023-07-31T00:03:37;7.53;;;4.93;;
54945;SDS011;40846;44.788;20.486;2023-07-31T00:06:03;7.75;;;5.43;;
54945;SDS011;40846;44.788;20.486;2023-07-31T00:08:29;6.38;;;4.97;;
54945;SDS011;40846;44.788;20.486;2023-07-31T00:10:55;9.85;;;5.88;;
54945;SDS011;40846;44.788;20.486;2023-07-31T00:13:21;8.30;;;5.20;;
54945;SDS011;40846;44.788;20.486;2023-07-31T00:15:48;13.70;;;5.65;;
54945;SDS011;40846;44.788;20.486;2023-07-31T00:18:14;9.60;;;5.25;;
54945;SDS011;40846;44.788;20.486;2023-07-31T00:20:40;9.23;;;5.45;;
54945;SDS011;40846;44.788;20.486;2023-07-31T00:23:06;11.63;;;5.50;;
54945;SDS011;40846;44.788;20.486;2023-07-31T00:25:32;7.50;;;5.15;;
54945;SDS011;40846;44.788;20.486;2023-07-31T00:27:58;7.53;;;5.35;;
54945;SDS011;40846;44.788;20.486;2023-07-31T00:30:24;7.53;;;4.88;;
54945;SDS011;40846;44.788;20.486;2023-07-31T00:32:52;5.72;;;4.63;;
54945;SDS011;40846;44.788;20.486;2023-07-31T00:35:18;9.82;;;5.43;;
54945;SDS011;40846;44.788;20.486;2023-07-31T00:37:44;6.60;;;4.72;;
54945;SDS011;40846;44.788;20.486;2023-07-31T00:40:10;7.18;;;5.00;;
54945;SDS011;40846;44.788;20.486;2023-07-31T00:42:36;8.10;;;4.90;;
54945;SDS011;40846;44.788;20.486;2023-07-31T00:45:02;7.90;;;4.63;;
54945;SDS011;40846;44.788;20.486;2023-07-31T00:47:28;9.10;;;5.65;;
54945;SDS011;40846;44.788;20.486;2023-07-31T00:49:54;8.25;;;5.20;;
54945;SDS011;40846;44.788;20.486;2023-07-31T00:52:20;8.80;;;5.10;;
54945;SDS011;40846;44.788;20.486;2023-07-31T00:54:46;7.85;;;5.00;;
54945;SDS011;40846;44.788;20.486;2023-07-31T00:57:12;7.80;;;5.07;;
54945;SDS011;40846;44.788;20.486;2023-07-31T00:59:38;8.60;;;6.18;;
54945;SDS011;40846;44.788;20.486;2023-07-31T01:02:05;6.57;;;4.88;;
54945;SDS011;40846;44.788;20.486;2023-07-31T01:04:31;10.90;;;5.20;;
54945;SDS011;40846;44.788;20.486;2023-07-31T01:07:01;10.30;;;6.15;;
54945;SDS011;40846;44.788;20.486;2023-07-31T01:09:37;8.00;;;5.57;;
54945;SDS011;40846;44.788;20.486;2023-07-31T01:12:06;9.13;;;5.72;;
54945;SDS011;40846;44.788;20.486;2023-07-31T01:14:33;6.57;;;5.32;;
54945;SDS011;40846;44.788;20.486;2023-07-31T01:16:59;10.85;;;5.10;;
54945;SDS011;40846;44.788;20.486;2023-07-31T01:19:25;9.55;;;4.95;;
54945;SDS011;40846;44.788;20.486;2023-07-31T01:27:10;12.27;;;5.43;;
54945;SDS011;40846;44.788;20.486;2023-07-31T01:32:04;8.57;;;5.35;;
54945;SDS011;40846;44.788;20.486;2023-07-31T01:34:30;8.75;;;5.35;;
54945;SDS011;40846;44.788;20.486;2023-07-31T01:36:57;7.57;;;5.40;;
54945;SDS011;40846;44.788;20.486;2023-07-31T01:39:23;9.68;;;5.13;;
54945;SDS011;40846;44.788;20.486;2023-07-31T01:41:49;7.75;;;4.85;;
54945;SDS011;40846;44.788;20.486;2023-07-31T01:44:16;8.55;;;5.15;;
54945;SDS011;40846;44.788;20.486;2023-07-31T01:46:42;8.05;;;4.82;;
54945;SDS011;40846;44.788;20.486;2023-07-31T01:49:08;6.60;;;4.32;;
54945;SDS011;40846;44.788;20.486;2023-07-31T01:51:34;6.95;;;4.80;;
54945;SDS011;40846;44.788;20.486;2023-07-31T01:54:00;14.30;;;6.53;;
54945;SDS011;40846;44.788;20.486;2023-07-31T01:56:26;12.85;;;5.40;;
54945;SDS011;40846;44.788;20.486;2023-07-31T01:58:52;8.60;;;5.18;;
54945;SDS011;40846;44.788;20.486;2023-07-31T02:01:18;6.88;;;4.70;;
54945;SDS011;40846;44.788;20.486;2023-07-31T02:03:44;8.90;;;4.97;;
54945;SDS011;40846;44.788;20.486;2023-07-31T02:06:10;7.93;;;4.93;;
54945;SDS011;40846;44.788;20.486;2023-07-31T02:08:36;6.50;;;4.50;;
54945;SDS011;40846;44.788;20.486;2023-07-31T02:11:03;11.75;;;6.75;;
54945;SDS011;40846;44.788;20.486;2023-07-31T02:13:29;14.63;;;5.47;;
54945;SDS011;40846;44.788;20.486;2023-07-31T02:15:55;8.48;;;4.80;;
54945;SDS011;40846;44.788;20.486;2023-07-31T02:18:21;6.78;;;5.07;;
54945;SDS011;40846;44.788;20.486;2023-07-31T02:20:50;9.63;;;5.50;;
54945;SDS011;40846;44.788;20.486;2023-07-31T02:23:17;8.32;;;4.85;;
54945;SDS011;40846;44.788;20.486;2023-07-31T02:25:43;8.20;;;5.03;;
54945;SDS011;40846;44.788;20.486;2023-07-31T02:28:09;7.63;;;5.22;;
54945;SDS011;40846;44.788;20.486;2023-07-31T02:30:36;8.48;;;5.63;;
54945;SDS011;40846;44.788;20.486;2023-07-31T02:33:02;9.65;;;5.95;;
54945;SDS011;40846;44.788;20.486;2023-07-31T02:35:28;10.20;;;6.03;;
54945;SDS011;40846;44.788;20.486;2023-07-31T02:37:54;7.30;;;5.60;;
54945;SDS011;40846;44.788;20.486;2023-07-31T02:40:20;8.90;;;6.18;;
54945;SDS011;40846;44.788;20.486;2023-07-31T02:42:46;8.45;;;5.60;;
54945;SDS011;40846;44.788;20.486;2023-07-31T02:45:12;8.73;;;5.35;;
54945;SDS011;40846;44.788;20.486;2023-07-31T02:47:38;14.38;;;7.00;;
54945;SDS011;40846;44.788;20.486;2023-07-31T02:50:04;9.95;;;5.63;;
54945;SDS011;40846;44.788;20.486;2023-07-31T02:52:30;8.65;;;6.18;;
54945;SDS011;40846;44.788;20.486;2023-07-31T02:54:57;12.77;;;6.03;;
54945;SDS011;40846;44.788;20.486;2023-07-31T02:57:23;9.75;;;6.80;;
54945;SDS011;40846;44.788;20.486;2023-07-31T02:59:49;16.45;;;5.70;;
54945;SDS011;40846;44.788;20.486;2023-07-31T03:02:15;8.88;;;5.90;;
54945;SDS011;40846;44.788;20.486;2023-07-31T03:04:41;8.57;;;6.00;;
54945;SDS011;40846;44.788;20.486;2023-07-31T03:07:07;12.93;;;7.15;;
54945;SDS011;40846;44.788;20.486;2023-07-31T03:09:33;10.77;;;7.68;;
54945;SDS011;40846;44.788;20.486;2023-07-31T03:11:59;13.85;;;7.68;;
54945;SDS011;40846;44.788;20.486;2023-07-31T03:14:25;15.80;;;7.57;;
54945;SDS011;40846;44.788;20.486;2023-07-31T03:16:51;11.45;;;7.60;;
54945;SDS011;40846;44.788;20.486;2023-07-31T03:19:17;12.35;;;7.57;;
54945;SDS011;40846;44.788;20.486;2023-07-31T03:21:44;22.40;;;9.45;;
54945;SDS011;40846;44.788;20.486;2023-07-31T03:24:10;15.88;;;8.60;;
54945;SDS011;40846;44.788;20.486;2023-07-31T03:26:37;12.27;;;8.80;;
54945;SDS011;40846;44.788;20.486;2023-07-31T03:29:06;15.95;;;9.32;;
54945;SDS011;40846;44.788;20.486;2023-07-31T03:31:32;13.32;;;8.93;;
54945;SDS011;40846;44.788;20.486;2023-07-31T03:33:58;17.13;;;9.52;;
54945;SDS011;40846;44.788;20.486;2023-07-31T03:36:24;14.55;;;9.32;;
54945;SDS011;40846;44.788;20.486;2023-07-31T03:38:51;14.15;;;9.00;;
54945;SDS011;40846;44.788;20.486;2023-07-31T03:41:17;12.02;;;9.75;;
54945;SDS011;40846;44.788;20.486;2023-07-31T03:43:43;14.60;;;9.63;;
54945;SDS011;40846;44.788;20.486;2023-07-31T03:46:09;13.18;;;10.00;;
54945;SDS011;40846;44.788;20.486;2023-07-31T03:48:36;15.27;;;10.25;;
54945;SDS011;40846;44.788;20.486;2023-07-31T03:51:02;23.35;;;10.70;;
54945;SDS011;40846;44.788;20.486;2023-07-31T03:53:28;14.90;;;10.90;;
54945;SDS011;40846;44.788;20.486;2023-07-31T03:55:54;14.10;;;10.15;;
54945;SDS011;40846;44.788;20.486;2023-07-31T03:58:21;15.45;;;10.88;;
54945;SDS011;40846;44.788;20.486;2023-07-31T04:00:47;15.25;;;9.85;;
54945;SDS011;40846;44.788;20.486;2023-07-31T04:03:13;12.52;;;8.75;;
54945;SDS011;40846;44.788;20.486;2023-07-31T04:05:39;15.63;;;7.82;;
54945;SDS011;40846;44.788;20.486;2023-07-31T04:08:05;12.35;;;8.48;;
54945;SDS011;40846;44.788;20.486;2023-07-31T04:10:31;13.55;;;8.45;;
54945;SDS011;40846;44.788;20.486;2023-07-31T04:12:58;12.40;;;9.13;;
54945;SDS011;40846;44.788;20.486;2023-07-31T04:15:25;10.32;;;8.13;;
54945;SDS011;40846;44.788;20.486;2023-07-31T04:17:51;15.93;;;8.50;;
54945;SDS011;40846;44.788;20.486;2023-07-31T04:20:17;9.65;;;6.70;;
54945;SDS011;40846;44.788;20.486;2023-07-31T04:22:43;11.77;;;7.88;;
54945;SDS011;40846;44.788;20.486;2023-07-31T04:25:09;14.20;;;8.15;;
54945;SDS011;40846;44.788;20.486;2023-07-31T04:27:35;13.57;;;7.82;;
54945;SDS011;40846;44.788;20.486;2023-07-31T04:30:01;11.57;;;7.50;;
54945;SDS011;40846;44.788;20.486;2023-07-31T04:32:28;12.32;;;6.65;;
54945;SDS011;40846;44.788;20.486;2023-07-31T04:34:54;11.48;;;7.10;;
54945;SDS011;40846;44.788;20.486;2023-07-31T04:37:20;10.77;;;7.10;;
54945;SDS011;40846;44.788;20.486;2023-07-31T04:39:47;10.48;;;6.93;;
54945;SDS011;40846;44.788;20.486;2023-07-31T04:42:13;17.33;;;7.07;;
54945;SDS011;40846;44.788;20.486;2023-07-31T04:44:39;10.65;;;7.00;;
54945;SDS011;40846;44.788;20.486;2023-07-31T04:47:05;10.15;;;6.50;;
54945;SDS011;40846;44.788;20.486;2023-07-31T04:49:32;9.98;;;6.80;;
54945;SDS011;40846;44.788;20.486;2023-07-31T04:51:58;10.40;;;8.02;;
54945;SDS011;40846;44.788;20.486;2023-07-31T04:54:24;9.38;;;6.82;;
54945;SDS011;40846;44.788;20.486;2023-07-31T04:56:50;8.25;;;5.90;;
54945;SDS011;40846;44.788;20.486;2023-07-31T04:59:17;9.20;;;5.70;;
54945;SDS011;40846;44.788;20.486;2023-07-31T05:01:43;12.27;;;6.28;;
54945;SDS011;40846;44.788;20.486;2023-07-31T05:04:12;10.32;;;6.22;;
54945;SDS011;40846;44.788;20.486;2023-07-31T05:06:38;10.45;;;6.55;;
54945;SDS011;40846;44.788;20.486;2023-07-31T05:09:04;6.80;;;5.28;;
54945;SDS011;40846;44.788;20.486;2023-07-31T05:11:30;9.05;;;5.40;;
54945;SDS011;40846;44.788;20.486;2023-07-31T05:13:56;8.00;;;5.28;;
54945;SDS011;40846;44.788;20.486;2023-07-31T05:16:25;10.95;;;5.88;;
54945;SDS011;40846;44.788;20.486;2023-07-31T05:18:51;7.60;;;5.00;;
54945;SDS011;40846;44.788;20.486;2023-07-31T05:21:17;11.77;;;5.35;;
54945;SDS011;40846;44.788;20.486;2023-07-31T05:23:43;8.75;;;5.63;;
54945;SDS011;40846;44.788;20.486;2023-07-31T05:26:09;8.52;;;5.65;;
54945;SDS011;40846;44.788;20.486;2023-07-31T05:28:35;7.70;;;5.40;;
54945;SDS011;40846;44.788;20.486;2023-07-31T05:31:02;6.57;;;4.25;;
54945;SDS011;40846;44.788;20.486;2023-07-31T05:33:28;8.98;;;5.97;;
54945;SDS011;40846;44.788;20.486;2023-07-31T05:35:54;11.23;;;6.00;;
54945;SDS011;40846;44.788;20.486;2023-07-31T05:38:20;12.40;;;5.88;;
54945;SDS011;40846;44.788;20.486;2023-07-31T05:40:46;11.43;;;6.10;;
54945;SDS011;40846;44.788;20.486;2023-07-31T05:43:12;9.77;;;5.68;;
54945;SDS011;40846;44.788;20.486;2023-07-31T05:45:39;6.47;;;5.30;;
54945;SDS011;40846;44.788;20.486;2023-07-31T05:48:05;12.02;;;5.60;;
54945;SDS011;40846;44.788;20.486;2023-07-31T05:50:31;9.68;;;5.80;;
54945;SDS011;40846;44.788;20.486;2023-07-31T05:52:57;12.10;;;6.15;;
54945;SDS011;40846;44.788;20.486;2023-07-31T05:55:24;9.60;;;5.57;;
54945;SDS011;40846;44.788;20.486;2023-07-31T05:57:52;7.25;;;5.35;;
54945;SDS011;40846;44.788;20.486;2023-07-31T06:00:18;10.70;;;4.82;;
54945;SDS011;40846;44.788;20.486;2023-07-31T06:02:46;9.23;;;5.28;;
54945;SDS011;40846;44.788;20.486;2023-07-31T06:05:12;15.00;;;5.35;;
54945;SDS011;40846;44.788;20.486;2023-07-31T06:07:39;8.80;;;5.13;;
54945;SDS011;40846;44.788;20.486;2023-07-31T06:10:05;8.15;;;4.95;;
54945;SDS011;40846;44.788;20.486;2023-07-31T06:12:31;10.73;;;5.15;;
54945;SDS011;40846;44.788;20.486;2023-07-31T06:14:57;9.65;;;5.80;;
54945;SDS011;40846;44.788;20.486;2023-07-31T06:17:23;10.45;;;5.18;;
54945;SDS011;40846;44.788;20.486;2023-07-31T06:19:51;8.23;;;5.45;;
54945;SDS011;40846;44.788;20.486;2023-07-31T06:22:17;12.48;;;5.95;;
54945;SDS011;40846;44.788;20.486;2023-07-31T06:24:43;11.18;;;5.35;;
54945;SDS011;40846;44.788;20.486;2023-07-31T06:27:09;6.75;;;4.53;;
54945;SDS011;40846;44.788;20.486;2023-07-31T06:29:36;10.68;;;4.97;;
54945;SDS011;40846;44.788;20.486;2023-07-31T06:32:02;9.80;;;4.60;;
54945;SDS011;40846;44.788;20.486;2023-07-31T06:34:28;8.73;;;4.90;;
54945;SDS011;40846;44.788;20.486;2023-07-31T06:36:55;7.22;;;4.82;;
54945;SDS011;40846;44.788;20.486;2023-07-31T06:39:21;6.38;;;4.50;;
54945;SDS011;40846;44.788;20.486;2023-07-31T06:41:47;9.57;;;4.55;;
54945;SDS011;40846;44.788;20.486;2023-07-31T06:44:13;9.75;;;4.22;;
54945;SDS011;40846;44.788;20.486;2023-07-31T06:46:39;8.15;;;4.47;;
54945;SDS011;40846;44.788;20.486;2023-07-31T06:49:05;6.90;;;4.68;;
54945;SDS011;40846;44.788;20.486;2023-07-31T06:51:31;8.13;;;4.72;;
54945;SDS011;40846;44.788;20.486;2023-07-31T06:53:58;11.63;;;4.55;;
54945;SDS011;40846;44.788;20.486;2023-07-31T06:56:24;12.60;;;4.35;;
54945;SDS011;40846;44.788;20.486;2023-07-31T06:58:51;10.50;;;4.60;;
54945;SDS011;40846;44.788;20.486;2023-07-31T07:01:17;15.30;;;4.57;;
54945;SDS011;40846;44.788;20.486;2023-07-31T07:03:43;7.20;;;4.03;;
54945;SDS011;40846;44.788;20.486;2023-07-31T07:06:09;6.32;;;4.28;;
54945;SDS011;40846;44.788;20.486;2023-07-31T07:08:35;6.55;;;4.70;;
54945;SDS011;40846;44.788;20.486;2023-07-31T07:11:01;8.30;;;4.78;;
54945;SDS011;40846;44.788;20.486;2023-07-31T07:13:27;7.15;;;4.30;;
54945;SDS011;40846;44.788;20.486;2023-07-31T07:15:53;9.32;;;3.90;;
54945;SDS011;40846;44.788;20.486;2023-07-31T07:18:19;7.32;;;4.20;;
54945;SDS011;40846;44.788;20.486;2023-07-31T07:20:49;9.77;;;4.00;;
54945;SDS011;40846;44.788;20.486;2023-07-31T07:23:15;5.90;;;3.50;;
54945;SDS011;40846;44.788;20.486;2023-07-31T07:25:42;5.95;;;2.78;;
54945;SDS011;40846;44.788;20.486;2023-07-31T07:28:08;8.63;;;2.60;;
54945;SDS011;40846;44.788;20.486;2023-07-31T07:30:34;5.25;;;2.90;;
54945;SDS011;40846;44.788;20.486;2023-07-31T07:33:00;4.47;;;2.50;;
54945;SDS011;40846;44.788;20.486;2023-07-31T07:35:26;5.05;;;2.90;;
54945;SDS011;40846;44.788;20.486;2023-07-31T07:37:52;6.05;;;3.17;;
54945;SDS011;40846;44.788;20.486;2023-07-31T07:40:19;9.50;;;3.45;;
54945;SDS011;40846;44.788;20.486;2023-07-31T07:42:45;6.20;;;2.70;;
54945;SDS011;40846;44.788;20.486;2023-07-31T07:45:11;9.45;;;3.17;;
54945;SDS011;40846;44.788;20.486;2023-07-31T07:47:38;5.05;;;2.95;;
54945;SDS011;40846;44.788;20.486;2023-07-31T07:50:04;5.88;;;2.97;;
54945;SDS011;40846;44.788;20.486;2023-07-31T07:52:31;7.00;;;2.85;;
54945;SDS011;40846;44.788;20.486;2023-07-31T07:54:57;5.50;;;3.08;;
54945;SDS011;40846;44.788;20.486;2023-07-31T07:57:23;6.25;;;2.58;;
54945;SDS011;40846;44.788;20.486;2023-07-31T07:59:49;4.55;;;2.60;;
54945;SDS011;40846;44.788;20.486;2023-07-31T08:02:15;5.40;;;2.38;;
54945;SDS011;40846;44.788;20.486;2023-07-31T08:04:41;3.88;;;2.30;;
54945;SDS011;40846;44.788;20.486;2023-07-31T08:07:07;4.00;;;2.15;;
54945;SDS011;40846;44.788;20.486;2023-07-31T08:09:33;9.55;;;2.50;;
54945;SDS011;40846;44.788;20.486;2023-07-31T08:11:59;3.00;;;2.10;;
54945;SDS011;40846;44.788;20.486;2023-07-31T08:14:28;5.07;;;2.53;;
54945;SDS011;40846;44.788;20.486;2023-07-31T08:16:54;7.53;;;2.40;;
54945;SDS011;40846;44.788;20.486;2023-07-31T08:19:20;3.40;;;2.28;;
54945;SDS011;40846;44.788;20.486;2023-07-31T08:21:46;5.40;;;2.53;;
54945;SDS011;40846;44.788;20.486;2023-07-31T08:24:13;4.88;;;2.40;;
54945;SDS011;40846;44.788;20.486;2023-07-31T08:26:39;4.70;;;2.72;;
54945;SDS011;40846;44.788;20.486;2023-07-31T08:29:05;4.78;;;2.55;;
54945;SDS011;40846;44.788;20.486;2023-07-31T08:31:32;9.13;;;3.75;;
54945;SDS011;40846;44.788;20.486;2023-07-31T08:33:58;5.55;;;2.40;;
54945;SDS011;40846;44.788;20.486;2023-07-31T08:36:24;5.97;;;2.83;;
54945;SDS011;40846;44.788;20.486;2023-07-31T08:38:50;5.22;;;3.10;;
54945;SDS011;40846;44.788;20.486;2023-07-31T08:41:16;7.82;;;3.20;;
54945;SDS011;40846;44.788;20.486;2023-07-31T08:43:42;3.78;;;2.70;;
54945;SDS011;40846;44.788;20.486;2023-07-31T08:46:10;7.10;;;3.40;;
54945;SDS011;40846;44.788;20.486;2023-07-31T08:48:37;5.25;;;3.22;;
54945;SDS011;40846;44.788;20.486;2023-07-31T08:51:03;8.77;;;3.40;;
54945;SDS011;40846;44.788;20.486;2023-07-31T08:53:29;5.70;;;2.97;;
54945;SDS011;40846;44.788;20.486;2023-07-31T08:55:56;3.55;;;2.60;;
54945;SDS011;40846;44.788;20.486;2023-07-31T08:58:24;5.20;;;2.53;;
54945;SDS011;40846;44.788;20.486;2023-07-31T09:00:51;6.25;;;3.28;;
54945;SDS011;40846;44.788;20.486;2023-07-31T09:03:18;5.97;;;3.50;;
54945;SDS011;40846;44.788;20.486;2023-07-31T09:05:45;7.15;;;3.50;;
54945;SDS011;40846;44.788;20.486;2023-07-31T09:08:15;4.78;;;2.92;;
54945;SDS011;40846;44.788;20.486;2023-07-31T09:10:43;4.38;;;2.60;;
54945;SDS011;40846;44.788;20.486;2023-07-31T09:13:16;4.22;;;2.78;;
54945;SDS011;40846;44.788;20.486;2023-07-31T09:15:42;6.05;;;2.33;;
54945;SDS011;40846;44.788;20.486;2023-07-31T09:18:09;8.45;;;2.53;;
54945;SDS011;40846;44.788;20.486;2023-07-31T09:20:35;4.45;;;2.53;;
54945;SDS011;40846;44.788;20.486;2023-07-31T09:23:06;7.45;;;2.75;;
54945;SDS011;40846;44.788;20.486;2023-07-31T09:25:33;4.65;;;2.58;;
54945;SDS011;40846;44.788;20.486;2023-07-31T09:30:25;5.35;;;3.13;;
54945;SDS011;40846;44.788;20.486;2023-07-31T09:32:52;4.07;;;2.65;;
54945;SDS011;40846;44.788;20.486;2023-07-31T09:35:32;4.97;;;3.03;;
54945;SDS011;40846;44.788;20.486;2023-07-31T09:37:59;5.65;;;2.80;;
54945;SDS011;40846;44.788;20.486;2023-07-31T09:42:52;8.10;;;3.20;;
54945;SDS011;40846;44.788;20.486;2023-07-31T09:45:18;4.70;;;2.83;;
54945;SDS011;40846;44.788;20.486;2023-07-31T09:47:47;4.88;;;2.72;;
54945;SDS011;40846;44.788;20.486;2023-07-31T09:50:14;11.30;;;4.10;;
54945;SDS011;40846;44.788;20.486;2023-07-31T09:52:41;5.47;;;2.80;;
54945;SDS011;40846;44.788;20.486;2023-07-31T09:55:07;4.72;;;2.47;;
54945;SDS011;40846;44.788;20.486;2023-07-31T09:57:33;6.07;;;3.03;;
54945;SDS011;40846;44.788;20.486;2023-07-31T10:00:00;5.15;;;2.60;;
54945;SDS011;40846;44.788;20.486;2023-07-31T10:02:26;5.43;;;2.33;;
54945;SDS011;40846;44.788;20.486;2023-07-31T10:04:53;6.00;;;2.45;;
54945;SDS011;40846;44.788;20.486;2023-07-31T10:07:25;6.60;;;2.40;;
54945;SDS011;40846;44.788;20.486;2023-07-31T10:09:53;4.07;;;2.30;;
54945;SDS011;40846;44.788;20.486;2023-07-31T10:12:20;4.13;;;2.25;;
54945;SDS011;40846;44.788;20.486;2023-07-31T10:14:48;4.55;;;2.50;;
54945;SDS011;40846;44.788;20.486;2023-07-31T10:17:14;4.13;;;2.40;;
54945;SDS011;40846;44.788;20.486;2023-07-31T10:19:41;5.70;;;2.92;;
54945;SDS011;40846;44.788;20.486;2023-07-31T10:22:07;4.10;;;2.53;;
54945;SDS011;40846;44.788;20.486;2023-07-31T10:24:33;3.55;;;2.22;;
54945;SDS011;40846;44.788;20.486;2023-07-31T10:27:00;5.13;;;2.33;;
54945;SDS011;40846;44.788;20.486;2023-07-31T10:29:28;3.30;;;2.38;;
54945;SDS011;40846;44.788;20.486;2023-07-31T10:31:55;4.07;;;2.63;;
54945;SDS011;40846;44.788;20.486;2023-07-31T10:34:22;4.10;;;2.28;;
54945;SDS011;40846;44.788;20.486;2023-07-31T10:36:48;5.05;;;2.17;;
54945;SDS011;40846;44.788;20.486;2023-07-31T10:41:59;6.78;;;2.40;;
54945;SDS011;40846;44.788;20.486;2023-07-31T10:44:25;3.20;;;2.13;;
54945;SDS011;40846;44.788;20.486;2023-07-31T10:46:54;3.88;;;1.80;;
54945;SDS011;40846;44.788;20.486;2023-07-31T10:49:20;5.15;;;2.28;;
54945;SDS011;40846;44.788;20.486;2023-07-31T10:51:47;5.15;;;1.90;;
54945;SDS011;40846;44.788;20.486;2023-07-31T10:54:14;7.15;;;2.13;;
54945;SDS011;40846;44.788;20.486;2023-07-31T10:56:46;4.60;;;2.10;;
54945;SDS011;40846;44.788;20.486;2023-07-31T10:59:13;7.95;;;2.45;;
54945;SDS011;40846;44.788;20.486;2023-07-31T11:04:26;3.15;;;1.83;;
54945;SDS011;40846;44.788;20.486;2023-07-31T11:07:01;7.82;;;2.10;;
54945;SDS011;40846;44.788;20.486;2023-07-31T11:09:31;6.70;;;1.90;;
54945;SDS011;40846;44.788;20.486;2023-07-31T11:11:57;6.10;;;1.80;;
54945;SDS011;40846;44.788;20.486;2023-07-31T11:14:24;5.60;;;2.15;;
54945;SDS011;40846;44.788;20.486;2023-07-31T11:16:50;5.68;;;2.40;;
54945;SDS011;40846;44.788;20.486;2023-07-31T11:19:22;4.30;;;2.20;;
54945;SDS011;40846;44.788;20.486;2023-07-31T11:21:49;5.13;;;1.90;;
54945;SDS011;40846;44.788;20.486;2023-07-31T11:24:15;3.85;;;1.70;;
54945;SDS011;40846;44.788;20.486;2023-07-31T11:26:48;3.22;;;2.20;;
54945;SDS011;40846;44.788;20.486;2023-07-31T11:29:15;2.28;;;1.60;;
54945;SDS011;40846;44.788;20.486;2023-07-31T11:31:44;8.13;;;2.20;;
54945;SDS011;40846;44.788;20.486;2023-07-31T11:34:11;14.10;;;2.05;;
54945;SDS011;40846;44.788;20.486;2023-07-31T11:36:37;4.03;;;2.08;;
54945;SDS011;40846;44.788;20.486;2023-07-31T11:39:09;5.80;;;2.30;;
54945;SDS011;40846;44.788;20.486;2023-07-31T11:41:36;3.72;;;2.25;;
54945;SDS011;40846;44.788;20.486;2023-07-31T11:44:02;5.22;;;2.22;;
54945;SDS011;40846;44.788;20.486;2023-07-31T11:46:30;6.18;;;2.35;;
54945;SDS011;40846;44.788;20.486;2023-07-31T11:48:59;3.15;;;1.90;;
54945;SDS011;40846;44.788;20.486;2023-07-31T11:51:26;4.95;;;1.90;;
54945;SDS011;40846;44.788;20.486;2023-07-31T11:53:55;4.25;;;2.42;;
54945;SDS011;40846;44.788;20.486;2023-07-31T11:56:21;5.47;;;2.20;;
54945;SDS011;40846;44.788;20.486;2023-07-31T11:58:53;10.43;;;1.90;;
54945;SDS011;40846;44.788;20.486;2023-07-31T12:01:20;3.53;;;2.33;;
54945;SDS011;40846;44.788;20.486;2023-07-31T12:03:47;6.43;;;2.45;;
54945;SDS011;40846;44.788;20.486;2023-07-31T12:06:13;14.55;;;2.65;;
54945;SDS011;40846;44.788;20.486;2023-07-31T12:08:39;3.80;;;1.85;;
54945;SDS011;40846;44.788;20.486;2023-07-31T12:11:06;4.40;;;1.77;;
54945;SDS011;40846;44.788;20.486;2023-07-31T12:13:32;3.42;;;2.03;;
54945;SDS011;40846;44.788;20.486;2023-07-31T12:15:59;5.50;;;2.40;;
54945;SDS011;40846;44.788;20.486;2023-07-31T12:18:27;5.18;;;1.90;;
54945;SDS011;40846;44.788;20.486;2023-07-31T12:20:54;4.80;;;2.20;;
54945;SDS011;40846;44.788;20.486;2023-07-31T12:23:22;2.88;;;1.80;;
54945;SDS011;40846;44.788;20.486;2023-07-31T12:26:02;7.07;;;1.92;;
54945;SDS011;40846;44.788;20.486;2023-07-31T12:28:28;4.00;;;2.10;;
54945;SDS011;40846;44.788;20.486;2023-07-31T12:30:58;4.20;;;2.13;;
54945;SDS011;40846;44.788;20.486;2023-07-31T12:33:29;14.23;;;2.17;;
54945;SDS011;40846;44.788;20.486;2023-07-31T12:35:56;4.63;;;2.47;;
54945;SDS011;40846;44.788;20.486;2023-07-31T12:38:22;12.05;;;2.63;;
54945;SDS011;40846;44.788;20.486;2023-07-31T12:40:48;5.55;;;2.10;;
54945;SDS011;40846;44.788;20.486;2023-07-31T12:43:15;5.35;;;2.03;;
54945;SDS011;40846;44.788;20.486;2023-07-31T12:45:41;3.85;;;1.80;;
54945;SDS011;40846;44.788;20.486;2023-07-31T12:48:07;3.50;;;1.80;;
54945;SDS011;40846;44.788;20.486;2023-07-31T12:50:34;5.57;;;2.13;;
54945;SDS011;40846;44.788;20.486;2023-07-31T12:53:01;5.05;;;2.05;;
54945;SDS011;40846;44.788;20.486;2023-07-31T12:55:28;3.60;;;1.90;;
54945;SDS011;40846;44.788;20.486;2023-07-31T12:57:55;3.63;;;1.98;;
54945;SDS011;40846;44.788;20.486;2023-07-31T13:00:21;8.43;;;2.03;;
54945;SDS011;40846;44.788;20.486;2023-07-31T13:02:47;8.90;;;2.35;;
54945;SDS011;40846;44.788;20.486;2023-07-31T13:05:14;4.50;;;2.20;;
54945;SDS011;40846;44.788;20.486;2023-07-31T13:07:40;6.47;;;2.10;;
54945;SDS011;40846;44.788;20.486;2023-07-31T13:10:06;3.40;;;1.77;;
54945;SDS011;40846;44.788;20.486;2023-07-31T13:12:33;5.05;;;1.80;;
54945;SDS011;40846;44.788;20.486;2023-07-31T13:14:59;8.07;;;1.98;;
54945;SDS011;40846;44.788;20.486;2023-07-31T13:17:25;5.57;;;1.90;;
54945;SDS011;40846;44.788;20.486;2023-07-31T13:19:51;4.07;;;2.33;;
54945;SDS011;40846;44.788;20.486;2023-07-31T13:22:17;10.45;;;2.38;;
54945;SDS011;40846;44.788;20.486;2023-07-31T13:24:44;4.93;;;1.90;;
54945;SDS011;40846;44.788;20.486;2023-07-31T13:27:10;4.03;;;2.00;;
54945;SDS011;40846;44.788;20.486;2023-07-31T13:29:36;7.63;;;2.40;;
54945;SDS011;40846;44.788;20.486;2023-07-31T13:32:02;5.30;;;1.95;;
54945;SDS011;40846;44.788;20.486;2023-07-31T13:34:28;3.65;;;2.28;;
54945;SDS011;40846;44.788;20.486;2023-07-31T13:36:54;4.47;;;2.40;;
54945;SDS011;40846;44.788;20.486;2023-07-31T13:39:21;8.90;;;3.10;;
54945;SDS011;40846;44.788;20.486;2023-07-31T13:41:47;4.80;;;2.00;;
54945;SDS011;40846;44.788;20.486;2023-07-31T13:44:14;16.05;;;3.25;;
54945;SDS011;40846;44.788;20.486;2023-07-31T13:46:40;4.68;;;2.30;;
54945;SDS011;40846;44.788;20.486;2023-07-31T13:49:06;5.75;;;2.03;;
54945;SDS011;40846;44.788;20.486;2023-07-31T13:51:32;4.40;;;1.80;;
54945;SDS011;40846;44.788;20.486;2023-07-31T13:54:04;5.35;;;2.22;;
54945;SDS011;40846;44.788;20.486;2023-07-31T13:56:31;7.15;;;2.75;;
54945;SDS011;40846;44.788;20.486;2023-07-31T13:58:57;5.28;;;2.00;;
54945;SDS011;40846;44.788;20.486;2023-07-31T14:01:23;3.90;;;2.10;;
54945;SDS011;40846;44.788;20.486;2023-07-31T14:03:49;6.00;;;2.20;;
54945;SDS011;40846;44.788;20.486;2023-07-31T14:06:15;4.22;;;2.00;;
54945;SDS011;40846;44.788;20.486;2023-07-31T14:08:41;5.78;;;1.98;;
54945;SDS011;40846;44.788;20.486;2023-07-31T14:11:07;6.10;;;1.98;;
54945;SDS011;40846;44.788;20.486;2023-07-31T14:13:33;8.20;;;2.90;;
54945;SDS011;40846;44.788;20.486;2023-07-31T14:15:59;14.25;;;2.35;;
54945;SDS011;40846;44.788;20.486;2023-07-31T14:18:25;9.45;;;2.50;;
54945;SDS011;40846;44.788;20.486;2023-07-31T14:20:51;13.88;;;3.03;;
54945;SDS011;40846;44.788;20.486;2023-07-31T14:23:17;8.55;;;2.42;;
54945;SDS011;40846;44.788;20.486;2023-07-31T14:25:45;7.80;;;2.00;;
54945;SDS011;40846;44.788;20.486;2023-07-31T14:28:11;7.53;;;2.13;;
54945;SDS011;40846;44.788;20.486;2023-07-31T14:30:37;12.15;;;2.50;;
54945;SDS011;40846;44.788;20.486;2023-07-31T14:33:03;14.80;;;2.15;;
54945;SDS011;40846;44.788;20.486;2023-07-31T14:35:29;6.63;;;2.20;;
54945;SDS011;40846;44.788;20.486;2023-07-31T14:37:55;4.93;;;2.00;;
54945;SDS011;40846;44.788;20.486;2023-07-31T14:40:21;5.00;;;2.10;;
54945;SDS011;40846;44.788;20.486;2023-07-31T14:42:47;13.35;;;2.42;;
54945;SDS011;40846;44.788;20.486;2023-07-31T14:45:13;13.35;;;2.75;;